createdAt,value
2019-05-15T00:01:24.257Z,65.92
2019-05-15T00:06:30.127Z,66.15
2019-05-15T00:11:35.593Z,66.44
2019-05-15T00:16:41.051Z,66.72
2019-05-15T00:21:48.983Z,66.68
2019-05-15T00:26:55.450Z,67.37
2019-05-15T00:32:00.683Z,67.43
2019-05-15T00:37:06.379Z,67.71
2019-05-15T00:42:11.632Z,68.24
2019-05-15T00:47:18.098Z,68.27
2019-05-15T00:52:24.008Z,68.57
2019-05-15T00:57:29.550Z,68.70
2019-05-15T01:02:35.020Z,68.88
2019-05-15T01:07:40.765Z,69.14
2019-05-15T01:12:48.529Z,69.22
2019-05-15T01:17:53.387Z,69.50
2019-05-15T01:22:59.231Z,69.65
2019-05-15T01:28:04.677Z,70.53
2019-05-15T01:33:09.948Z,70.53
2019-05-15T01:38:15.177Z,70.35
2019-05-15T01:43:20.493Z,70.35
2019-05-15T01:48:28.144Z,71.01
2019-05-15T01:53:33.313Z,71.00
2019-05-15T01:58:38.695Z,71.10
2019-05-15T02:03:44.128Z,71.64
2019-05-15T02:08:49.914Z,71.88
2019-05-15T02:13:55.272Z,72.14
2019-05-15T02:19:00.439Z,72.36
2019-05-15T02:24:07.887Z,72.77
2019-05-15T02:29:14.544Z,73.03
2019-05-15T02:34:19.870Z,72.29
2019-05-15T02:39:25.082Z,72.35
2019-05-15T02:44:30.385Z,72.08
2019-05-15T02:49:35.740Z,71.93
2019-05-15T02:54:42.022Z,71.57
2019-05-15T02:59:49.865Z,70.93
2019-05-15T03:04:53.904Z,70.51
2019-05-15T03:09:59.897Z,70.18
2019-05-15T03:15:09.676Z,69.62
2019-05-15T03:20:13.418Z,70.23
2019-05-15T03:25:19.254Z,70.14
2019-05-15T03:30:24.486Z,70.28
2019-05-15T03:35:32.688Z,71.73
2019-05-15T03:40:39.594Z,72.00
2019-05-15T03:45:44.557Z,72.59
2019-05-15T03:50:49.801Z,72.71
2019-05-15T03:55:58.663Z,72.41
2019-05-15T04:01:02.360Z,72.53
2019-05-15T04:06:10.151Z,72.36
2019-05-15T04:11:15.115Z,70.47
2019-05-15T04:16:20.456Z,70.35
2019-05-15T04:21:25.846Z,69.99
2019-05-15T04:26:34.253Z,70.93
2019-05-15T04:31:51.671Z,71.83
2019-05-15T04:36:49.464Z,72.56
2019-05-15T04:41:53.793Z,73.16
2019-05-15T04:46:59.656Z,72.39
2019-05-15T04:52:05.198Z,72.62
2019-05-15T04:57:10.408Z,71.93
2019-05-15T05:02:19.427Z,71.97
2019-05-15T05:07:22.713Z,70.28
2019-05-15T05:12:28.972Z,70.80
2019-05-15T05:17:34.305Z,69.87
2019-05-15T05:22:39.758Z,69.59
2019-05-15T05:27:45.324Z,69.77
2019-05-15T05:32:52.222Z,69.62
2019-05-15T05:37:58.294Z,69.16
2019-05-15T05:43:04.165Z,69.55
2019-05-15T05:48:09.632Z,69.51
2019-05-15T05:53:15.087Z,68.90
2019-05-15T05:58:20.451Z,69.24
2019-05-15T06:03:27.891Z,68.40
2019-05-15T06:08:32.315Z,69.13
2019-05-15T06:13:38.207Z,70.13
2019-05-15T06:18:43.643Z,68.99
2019-05-15T06:23:55.754Z,69.60
2019-05-15T06:28:58.248Z,68.94
2019-05-15T06:34:02.833Z,68.83
2019-05-15T06:39:08.641Z,68.17
2019-05-15T06:44:13.821Z,68.01
2019-05-15T06:49:19.060Z,68.15
2019-05-15T06:54:24.220Z,67.76
2019-05-15T06:59:29.409Z,66.43
2019-05-15T07:04:34.632Z,66.78
2019-05-15T07:09:40.184Z,66.09
2019-05-15T07:14:48.757Z,67.59
2019-05-15T07:19:55.053Z,67.16
2019-05-15T07:25:00.470Z,66.39
2019-05-15T07:30:11.662Z,66.98
2019-05-15T07:35:19.008Z,66.59
2019-05-15T07:40:25.339Z,66.83
2019-05-15T07:45:30.899Z,66.96
2019-05-15T07:50:38.671Z,68.14
2019-05-15T07:55:43.214Z,67.25
2019-05-15T08:00:50.050Z,67.27
2019-05-15T08:06:02.604Z,66.74
2019-05-15T08:11:16.342Z,67.23
2019-05-15T08:16:10.624Z,66.81
2019-05-15T08:21:18.460Z,66.92
2019-05-15T08:26:23.040Z,66.75
2019-05-15T08:31:28.978Z,66.14
2019-05-15T08:36:34.630Z,65.89
2019-05-15T08:41:39.776Z,66.81
2019-05-15T08:46:47.843Z,66.47
2019-05-15T08:51:53.053Z,65.83
2019-05-15T08:56:59.204Z,66.70
2019-05-15T09:02:07.877Z,66.19
2019-05-15T09:07:12.792Z,66.03
2019-05-15T09:12:18.841Z,65.50
2019-05-15T09:17:24.560Z,65.43
2019-05-15T09:22:29.884Z,65.20
2019-05-15T09:27:38.665Z,65.47
2019-05-15T09:32:44.225Z,65.22
2019-05-15T09:37:49.712Z,64.58
2019-05-15T09:42:55.048Z,64.48
2019-05-15T09:48:00.988Z,63.58
2019-05-15T09:53:09.133Z,62.87
2019-05-15T09:58:13.348Z,63.53
2019-05-15T10:03:19.139Z,63.07
2019-05-15T10:08:24.469Z,63.85
2019-05-15T10:13:29.963Z,62.72
2019-05-15T10:18:35.451Z,63.50
2019-05-15T10:23:40.843Z,61.92
2019-05-15T10:28:49.028Z,62.31
2019-05-15T10:33:53.749Z,62.65
2019-05-15T10:38:59.498Z,62.38
2019-05-15T10:44:08.864Z,61.68
2019-05-15T10:49:13.736Z,61.34
2019-05-15T10:54:19.358Z,61.50
2019-05-15T10:59:24.649Z,61.24
2019-05-15T11:04:30.006Z,60.34
2019-05-15T11:09:37.518Z,61.03
2019-05-15T11:14:42.310Z,59.85
2019-05-15T11:19:49.923Z,60.08
2019-05-15T11:24:54.595Z,59.86
2019-05-15T11:29:59.814Z,60.10
2019-05-15T11:35:07.390Z,60.70
2019-05-15T11:40:13.558Z,59.40
2019-05-15T11:45:19.452Z,59.27
2019-05-15T11:50:25.293Z,59.07
2019-05-15T11:55:30.638Z,59.46
2019-05-15T12:00:38.160Z,59.18
2019-05-15T12:05:42.742Z,60.86
2019-05-15T12:10:47.961Z,59.37
2019-05-15T12:15:54.405Z,60.33
2019-05-15T12:20:59.844Z,60.17
2019-05-15T12:26:05.240Z,58.70
2019-05-15T12:31:10.450Z,57.75
2019-05-15T12:39:24.791Z,58.90
2019-05-15T13:01:51.760Z,61.00
2019-05-15T13:07:12.083Z,59.28
2019-05-15T13:12:04.496Z,56.86
2019-05-15T13:17:09.747Z,56.97
2019-05-15T13:22:18.920Z,53.69
2019-05-15T13:27:22.364Z,56.15
2019-05-15T13:32:28.505Z,58.57
2019-05-15T13:37:34.176Z,58.69
2019-05-15T13:42:39.230Z,59.07
2019-05-15T13:47:44.306Z,59.11
2019-05-15T13:52:49.701Z,60.30
2019-05-15T13:57:54.857Z,61.30
2019-05-15T14:03:00.317Z,61.37
2019-05-15T14:08:05.685Z,61.61
2019-05-15T14:13:10.949Z,61.89
2019-05-15T14:18:16.147Z,63.04
2019-05-15T14:23:21.952Z,62.50
2019-05-15T14:28:28.372Z,62.93
2019-05-15T14:33:34.188Z,62.93
2019-05-15T14:38:39.568Z,63.08
2019-05-15T14:43:45.721Z,62.98
2019-05-15T14:48:50.771Z,63.42
2019-05-15T14:53:58.212Z,64.72
2019-05-15T14:59:03.324Z,65.17
2019-05-15T15:04:08.981Z,66.05
2019-05-15T15:09:14.875Z,66.26
2019-05-15T15:14:20.140Z,66.38
2019-05-15T15:19:25.338Z,67.50
2019-05-15T15:24:30.579Z,69.00
2019-05-15T15:29:35.909Z,70.15
2019-05-15T15:34:41.251Z,69.70
2019-05-15T15:39:48.146Z,70.82
2019-05-15T15:44:53.591Z,69.87
2019-05-15T15:49:58.814Z,70.46
2019-05-15T15:55:04.422Z,69.68
2019-05-15T16:00:11.057Z,69.68
2019-05-15T16:05:18.992Z,69.07
2019-05-15T16:10:23.599Z,69.28
2019-05-15T16:15:29.210Z,69.25
2019-05-15T16:20:34.572Z,69.08
2019-05-15T16:25:40.159Z,69.31
2019-05-15T16:30:51.034Z,69.83
2019-05-15T16:35:52.748Z,72.79
2019-05-15T16:40:58.528Z,73.44
2019-05-15T16:46:04.763Z,74.56
2019-05-15T16:51:10.023Z,75.76
2019-05-15T16:56:15.606Z,76.62
2019-05-15T17:01:20.804Z,76.62
2019-05-15T17:06:28.108Z,76.57
2019-05-15T17:11:33.632Z,77.00
2019-05-15T17:16:38.976Z,76.31
2019-05-15T17:21:44.320Z,77.00
2019-05-15T17:26:50.171Z,77.08
2019-05-15T17:31:55.614Z,77.35
2019-05-15T17:37:00.847Z,77.30
2019-05-15T17:42:06.782Z,77.08
2019-05-15T17:47:14.113Z,76.60
2019-05-15T17:52:19.254Z,76.54
2019-05-15T17:57:24.967Z,76.40
2019-05-15T18:02:30.326Z,76.99
2019-05-15T18:07:35.532Z,76.99
2019-05-15T18:12:41.013Z,77.55
2019-05-15T18:17:48.210Z,77.43
2019-05-15T18:22:53.653Z,77.72
2019-05-15T18:27:59.548Z,77.72
2019-05-15T18:33:05.052Z,77.65
2019-05-15T18:38:10.277Z,77.33
2019-05-15T18:43:15.475Z,76.98
2019-05-15T18:48:21.173Z,77.32
2019-05-15T18:53:28.346Z,77.63
2019-05-15T18:58:34.337Z,78.33
2019-05-15T19:03:39.617Z,78.33
2019-05-15T19:08:44.780Z,78.14
2019-05-15T19:13:50.320Z,78.59
2019-05-15T19:18:55.711Z,78.82
2019-05-15T19:24:01.931Z,78.45
2019-05-15T19:29:08.396Z,79.22
2019-05-15T19:34:13.867Z,79.46
2019-05-15T19:39:19.390Z,79.82
2019-05-15T19:44:24.673Z,80.10
2019-05-15T19:49:30.281Z,80.06
2019-05-15T19:54:37.834Z,80.22
2019-05-15T19:59:43.559Z,80.35
2019-05-15T20:04:49.185Z,79.44
2019-05-15T20:09:55.044Z,80.46
2019-05-15T20:15:00.770Z,80.23
2019-05-15T20:20:08.956Z,80.49
2019-05-15T20:25:15.483Z,80.17
2019-05-15T20:30:21.611Z,80.33
2019-05-15T20:35:28.217Z,80.35
2019-05-15T20:40:33.908Z,80.96
2019-05-15T20:45:39.477Z,80.99
2019-05-15T20:50:44.816Z,80.89
2019-05-15T20:55:50.196Z,80.75
2019-05-15T21:00:58.880Z,81.15
2019-05-15T21:06:03.162Z,81.00
2019-05-15T21:11:11.811Z,81.24
2019-05-15T21:16:18.548Z,81.28
2019-05-15T21:21:22.901Z,81.19
2019-05-15T21:26:29.162Z,81.78
2019-05-15T21:31:35.039Z,81.86
2019-05-15T21:36:40.544Z,82.02
2019-05-15T21:41:48.734Z,81.39
2019-05-15T21:46:53.305Z,81.48
2019-05-15T21:51:58.773Z,81.27
2019-05-15T21:57:18.817Z,80.93
2019-05-15T22:02:12.864Z,80.77
2019-05-15T22:07:18.429Z,80.92
2019-05-15T22:12:23.625Z,80.39
2019-05-15T22:17:29.387Z,80.75
2019-05-15T22:22:35.690Z,81.02
2019-05-15T22:27:40.921Z,80.57
2019-05-15T22:32:49.179Z,80.89
2019-05-15T22:37:53.545Z,80.92
2019-05-15T22:42:59.907Z,81.68
2019-05-15T22:48:06.013Z,81.75
2019-05-15T22:53:11.472Z,81.88
2019-05-15T22:58:16.624Z,81.38
2019-05-15T23:03:22.284Z,81.10
2019-05-15T23:08:29.026Z,80.91
2019-05-15T23:13:34.436Z,81.33
2019-05-15T23:18:39.593Z,80.82
2019-05-15T23:23:45.143Z,80.16
2019-05-15T23:28:50.729Z,79.45
2019-05-15T23:33:56.386Z,80.69
2019-05-15T23:39:01.724Z,81.32
2019-05-15T23:44:08.701Z,80.56
2019-05-15T23:49:14.334Z,80.73
2019-05-15T23:54:19.876Z,79.53
2019-05-15T23:59:28.177Z,79.42
